sensor_id;sensor_type;location;lat;lon;timestamp;P1;durP1;ratioP1;P2;durP2;ratioP2
40695;SDS011;40425;51.102;17.208;2022-11-25T00:04:47;128.23;;;62.07;;
40695;SDS011;40425;51.102;17.208;2022-11-25T00:09:48;126.87;;;63.07;;
40695;SDS011;40425;51.102;17.208;2022-11-25T00:14:49;135.93;;;65.53;;
40695;SDS011;40425;51.102;17.208;2022-11-25T00:19:50;127.30;;;60.47;;
40695;SDS011;40425;51.102;17.208;2022-11-25T00:24:51;126.20;;;62.53;;
40695;SDS011;40425;51.102;17.208;2022-11-25T00:29:51;125.10;;;61.43;;
40695;SDS011;40425;51.102;17.208;2022-11-25T00:34:52;149.27;;;70.07;;
40695;SDS011;40425;51.102;17.208;2022-11-25T00:39:53;143.43;;;66.63;;
40695;SDS011;40425;51.102;17.208;2022-11-25T00:44:54;122.63;;;60.50;;
40695;SDS011;40425;51.102;17.208;2022-11-25T00:49:55;122.30;;;58.40;;
40695;SDS011;40425;51.102;17.208;2022-11-25T00:54:55;134.90;;;63.43;;
40695;SDS011;40425;51.102;17.208;2022-11-25T00:59:56;115.87;;;59.70;;
40695;SDS011;40425;51.102;17.208;2022-11-25T01:04:57;122.70;;;59.37;;
40695;SDS011;40425;51.102;17.208;2022-11-25T01:09:58;99.03;;;48.50;;
40695;SDS011;40425;51.102;17.208;2022-11-25T01:14:59;100.33;;;52.57;;
40695;SDS011;40425;51.102;17.208;2022-11-25T01:20:00;102.10;;;50.03;;
40695;SDS011;40425;51.102;17.208;2022-11-25T01:25:02;98.90;;;51.57;;
40695;SDS011;40425;51.102;17.208;2022-11-25T01:30:04;93.00;;;46.63;;
40695;SDS011;40425;51.102;17.208;2022-11-25T01:35:05;96.60;;;47.27;;
40695;SDS011;40425;51.102;17.208;2022-11-25T01:40:07;103.07;;;52.10;;
40695;SDS011;40425;51.102;17.208;2022-11-25T01:50:22;96.90;;;49.57;;
40695;SDS011;40425;51.102;17.208;2022-11-25T01:55:26;92.60;;;49.57;;
40695;SDS011;40425;51.102;17.208;2022-11-25T02:00:30;102.17;;;51.57;;
40695;SDS011;40425;51.102;17.208;2022-11-25T02:05:38;94.70;;;49.33;;
40695;SDS011;40425;51.102;17.208;2022-11-25T02:10:52;97.72;;;48.97;;
40695;SDS011;40425;51.102;17.208;2022-11-25T02:15:54;98.90;;;48.97;;
40695;SDS011;40425;51.102;17.208;2022-11-25T02:20:55;94.00;;;47.63;;
40695;SDS011;40425;51.102;17.208;2022-11-25T02:25:56;93.30;;;48.50;;
40695;SDS011;40425;51.102;17.208;2022-11-25T02:30:57;107.57;;;53.50;;
40695;SDS011;40425;51.102;17.208;2022-11-25T02:35:59;100.10;;;50.50;;
40695;SDS011;40425;51.102;17.208;2022-11-25T02:46:18;107.17;;;52.27;;
40695;SDS011;40425;51.102;17.208;2022-11-25T02:51:23;100.90;;;47.97;;
40695;SDS011;40425;51.102;17.208;2022-11-25T02:56:27;89.77;;;44.17;;
40695;SDS011;40425;51.102;17.208;2022-11-25T03:01:29;105.43;;;48.67;;
40695;SDS011;40425;51.102;17.208;2022-11-25T03:06:31;104.53;;;49.13;;
40695;SDS011;40425;51.102;17.208;2022-11-25T03:11:32;95.23;;;45.20;;
40695;SDS011;40425;51.102;17.208;2022-11-25T03:16:52;94.70;;;45.07;;
40695;SDS011;40425;51.102;17.208;2022-11-25T03:21:52;90.57;;;42.40;;
40695;SDS011;40425;51.102;17.208;2022-11-25T03:26:53;89.23;;;43.67;;
40695;SDS011;40425;51.102;17.208;2022-11-25T03:31:54;97.33;;;45.43;;
40695;SDS011;40425;51.102;17.208;2022-11-25T03:36:55;101.47;;;47.23;;
40695;SDS011;40425;51.102;17.208;2022-11-25T03:41:56;108.10;;;45.10;;
40695;SDS011;40425;51.102;17.208;2022-11-25T03:46:57;103.70;;;47.70;;
40695;SDS011;40425;51.102;17.208;2022-11-25T03:51:58;112.83;;;46.63;;
40695;SDS011;40425;51.102;17.208;2022-11-25T03:56:59;105.40;;;46.93;;
40695;SDS011;40425;51.102;17.208;2022-11-25T04:01:59;110.70;;;49.17;;
40695;SDS011;40425;51.102;17.208;2022-11-25T04:07:00;112.80;;;46.57;;
40695;SDS011;40425;51.102;17.208;2022-11-25T04:12:01;112.37;;;47.80;;
40695;SDS011;40425;51.102;17.208;2022-11-25T04:17:20;101.97;;;45.67;;
40695;SDS011;40425;51.102;17.208;2022-11-25T04:22:21;111.40;;;46.90;;
40695;SDS011;40425;51.102;17.208;2022-11-25T04:27:22;111.30;;;47.90;;
40695;SDS011;40425;51.102;17.208;2022-11-25T04:32:23;106.57;;;47.93;;
40695;SDS011;40425;51.102;17.208;2022-11-25T04:37:24;106.63;;;46.30;;
40695;SDS011;40425;51.102;17.208;2022-11-25T04:42:25;114.37;;;48.27;;
40695;SDS011;40425;51.102;17.208;2022-11-25T04:47:31;120.90;;;49.20;;
40695;SDS011;40425;51.102;17.208;2022-11-25T04:52:32;103.63;;;46.30;;
40695;SDS011;40425;51.102;17.208;2022-11-25T04:57:34;110.00;;;47.13;;
40695;SDS011;40425;51.102;17.208;2022-11-25T05:02:35;122.43;;;51.50;;
40695;SDS011;40425;51.102;17.208;2022-11-25T05:07:36;131.93;;;51.77;;
40695;SDS011;40425;51.102;17.208;2022-11-25T05:12:37;118.70;;;48.47;;
40695;SDS011;40425;51.102;17.208;2022-11-25T05:17:38;117.63;;;47.27;;
40695;SDS011;40425;51.102;17.208;2022-11-25T05:22:39;117.73;;;47.17;;
40695;SDS011;40425;51.102;17.208;2022-11-25T05:27:40;133.20;;;49.07;;
40695;SDS011;40425;51.102;17.208;2022-11-25T05:32:41;114.13;;;44.70;;
40695;SDS011;40425;51.102;17.208;2022-11-25T05:37:43;119.73;;;48.23;;
40695;SDS011;40425;51.102;17.208;2022-11-25T05:42:44;104.33;;;44.73;;
40695;SDS011;40425;51.102;17.208;2022-11-25T05:47:45;104.83;;;45.30;;
40695;SDS011;40425;51.102;17.208;2022-11-25T05:52:45;102.50;;;45.17;;
40695;SDS011;40425;51.102;17.208;2022-11-25T05:57:46;97.23;;;44.97;;
40695;SDS011;40425;51.102;17.208;2022-11-25T06:02:50;99.63;;;46.07;;
40695;SDS011;40425;51.102;17.208;2022-11-25T06:07:51;101.03;;;43.50;;
40695;SDS011;40425;51.102;17.208;2022-11-25T06:12:52;101.53;;;44.33;;
40695;SDS011;40425;51.102;17.208;2022-11-25T06:17:54;98.40;;;46.47;;
40695;SDS011;40425;51.102;17.208;2022-11-25T06:22:56;94.97;;;43.57;;
40695;SDS011;40425;51.102;17.208;2022-11-25T06:27:57;99.43;;;48.57;;
40695;SDS011;40425;51.102;17.208;2022-11-25T06:32:58;98.23;;;48.47;;
40695;SDS011;40425;51.102;17.208;2022-11-25T06:37:59;100.57;;;53.97;;
40695;SDS011;40425;51.102;17.208;2022-11-25T06:43:01;100.43;;;51.47;;
40695;SDS011;40425;51.102;17.208;2022-11-25T06:48:04;87.27;;;44.00;;
40695;SDS011;40425;51.102;17.208;2022-11-25T06:53:05;86.43;;;45.50;;
40695;SDS011;40425;51.102;17.208;2022-11-25T06:58:05;100.83;;;50.07;;
40695;SDS011;40425;51.102;17.208;2022-11-25T07:03:06;104.57;;;50.97;;
40695;SDS011;40425;51.102;17.208;2022-11-25T07:08:07;104.53;;;50.13;;
40695;SDS011;40425;51.102;17.208;2022-11-25T07:13:08;105.67;;;45.63;;
40695;SDS011;40425;51.102;17.208;2022-11-25T07:18:09;99.43;;;42.93;;
40695;SDS011;40425;51.102;17.208;2022-11-25T07:23:10;104.73;;;51.30;;
40695;SDS011;40425;51.102;17.208;2022-11-25T07:28:10;108.20;;;56.03;;
40695;SDS011;40425;51.102;17.208;2022-11-25T07:33:11;104.57;;;50.47;;
40695;SDS011;40425;51.102;17.208;2022-11-25T07:38:12;111.50;;;55.30;;
40695;SDS011;40425;51.102;17.208;2022-11-25T07:43:13;96.40;;;45.90;;
40695;SDS011;40425;51.102;17.208;2022-11-25T07:48:14;96.93;;;49.40;;
40695;SDS011;40425;51.102;17.208;2022-11-25T07:53:14;86.63;;;45.40;;
40695;SDS011;40425;51.102;17.208;2022-11-25T07:58:15;94.07;;;47.00;;
40695;SDS011;40425;51.102;17.208;2022-11-25T08:03:16;100.97;;;44.23;;
40695;SDS011;40425;51.102;17.208;2022-11-25T08:08:17;104.50;;;46.60;;
40695;SDS011;40425;51.102;17.208;2022-11-25T08:13:18;101.93;;;45.33;;
40695;SDS011;40425;51.102;17.208;2022-11-25T08:18:19;108.07;;;45.50;;
40695;SDS011;40425;51.102;17.208;2022-11-25T08:28:20;111.57;;;47.23;;
40695;SDS011;40425;51.102;17.208;2022-11-25T08:33:21;101.43;;;47.03;;
40695;SDS011;40425;51.102;17.208;2022-11-25T08:38:22;109.43;;;47.23;;
40695;SDS011;40425;51.102;17.208;2022-11-25T08:43:23;109.17;;;49.00;;
40695;SDS011;40425;51.102;17.208;2022-11-25T08:48:26;101.20;;;46.23;;
40695;SDS011;40425;51.102;17.208;2022-11-25T08:53:27;98.07;;;44.10;;
40695;SDS011;40425;51.102;17.208;2022-11-25T08:58:28;100.50;;;41.03;;
40695;SDS011;40425;51.102;17.208;2022-11-25T09:03:36;96.30;;;42.07;;
40695;SDS011;40425;51.102;17.208;2022-11-25T09:08:39;90.87;;;41.47;;
40695;SDS011;40425;51.102;17.208;2022-11-25T09:13:41;88.50;;;43.07;;
40695;SDS011;40425;51.102;17.208;2022-11-25T09:18:42;97.07;;;44.57;;
40695;SDS011;40425;51.102;17.208;2022-11-25T09:23:44;80.33;;;40.63;;
40695;SDS011;40425;51.102;17.208;2022-11-25T09:28:45;95.03;;;48.23;;
40695;SDS011;40425;51.102;17.208;2022-11-25T09:33:46;85.60;;;39.53;;
40695;SDS011;40425;51.102;17.208;2022-11-25T09:38:47;79.20;;;40.03;;
40695;SDS011;40425;51.102;17.208;2022-11-25T09:43:55;76.03;;;35.93;;
40695;SDS011;40425;51.102;17.208;2022-11-25T09:55:05;76.07;;;37.00;;
40695;SDS011;40425;51.102;17.208;2022-11-25T10:00:27;82.33;;;38.50;;
40695;SDS011;40425;51.102;17.208;2022-11-25T10:05:38;83.07;;;39.72;;
40695;SDS011;40425;51.102;17.208;2022-11-25T10:10:45;89.72;;;39.85;;
40695;SDS011;40425;51.102;17.208;2022-11-25T10:15:50;77.77;;;38.40;;
40695;SDS011;40425;51.102;17.208;2022-11-25T10:20:53;77.18;;;36.67;;
40695;SDS011;40425;51.102;17.208;2022-11-25T10:25:55;72.85;;;36.97;;
40695;SDS011;40425;51.102;17.208;2022-11-25T10:31:05;67.00;;;34.00;;
40695;SDS011;40425;51.102;17.208;2022-11-25T10:36:08;73.43;;;35.55;;
40695;SDS011;40425;51.102;17.208;2022-11-25T10:41:33;73.72;;;36.80;;
40695;SDS011;40425;51.102;17.208;2022-11-25T10:46:49;53.33;;;30.50;;
40695;SDS011;40425;51.102;17.208;2022-11-25T10:51:56;48.53;;;27.33;;
40695;SDS011;40425;51.102;17.208;2022-11-25T10:56:58;47.95;;;27.48;;
40695;SDS011;40425;51.102;17.208;2022-11-25T11:02:18;48.58;;;28.58;;
40695;SDS011;40425;51.102;17.208;2022-11-25T11:07:29;42.55;;;23.73;;
40695;SDS011;40425;51.102;17.208;2022-11-25T11:12:32;43.03;;;23.57;;
40695;SDS011;40425;51.102;17.208;2022-11-25T11:17:34;47.83;;;26.30;;
40695;SDS011;40425;51.102;17.208;2022-11-25T11:22:36;43.00;;;24.40;;
40695;SDS011;40425;51.102;17.208;2022-11-25T11:27:55;38.92;;;21.98;;
40695;SDS011;40425;51.102;17.208;2022-11-25T11:32:58;44.13;;;22.88;;
40695;SDS011;40425;51.102;17.208;2022-11-25T11:38:30;29.40;;;16.33;;
40695;SDS011;40425;51.102;17.208;2022-11-25T11:49:01;30.58;;;17.48;;
40695;SDS011;40425;51.102;17.208;2022-11-25T11:54:29;35.38;;;17.83;;
40695;SDS011;40425;51.102;17.208;2022-11-25T11:59:48;33.50;;;15.02;;
40695;SDS011;40425;51.102;17.208;2022-11-25T12:05:11;21.40;;;12.50;;
40695;SDS011;40425;51.102;17.208;2022-11-25T12:15:23;25.67;;;14.55;;
40695;SDS011;40425;51.102;17.208;2022-11-25T12:25:42;24.30;;;13.75;;
40695;SDS011;40425;51.102;17.208;2022-11-25T12:36:14;30.60;;;15.95;;
40695;SDS011;40425;51.102;17.208;2022-11-25T12:46:53;31.98;;;17.10;;
40695;SDS011;40425;51.102;17.208;2022-11-25T12:57:26;24.60;;;12.27;;
40695;SDS011;40425;51.102;17.208;2022-11-25T13:07:53;28.17;;;12.80;;
40695;SDS011;40425;51.102;17.208;2022-11-25T13:18:30;25.95;;;14.88;;
40695;SDS011;40425;51.102;17.208;2022-11-25T13:23:43;26.85;;;14.30;;
40695;SDS011;40425;51.102;17.208;2022-11-25T13:28:50;27.52;;;14.80;;
40695;SDS011;40425;51.102;17.208;2022-11-25T13:54:23;28.40;;;18.63;;
40695;SDS011;40425;51.102;17.208;2022-11-25T13:59:33;37.55;;;21.48;;
40695;SDS011;40425;51.102;17.208;2022-11-25T14:04:48;56.17;;;32.72;;
40695;SDS011;40425;51.102;17.208;2022-11-25T14:10:12;73.63;;;38.95;;
40695;SDS011;40425;51.102;17.208;2022-11-25T14:20:43;37.63;;;22.23;;
40695;SDS011;40425;51.102;17.208;2022-11-25T14:26:11;41.45;;;23.10;;
40695;SDS011;40425;51.102;17.208;2022-11-25T14:31:27;37.53;;;19.50;;
40695;SDS011;40425;51.102;17.208;2022-11-25T14:37:20;35.90;;;19.30;;
40695;SDS011;40425;51.102;17.208;2022-11-25T14:42:09;37.13;;;20.43;;
40695;SDS011;40425;51.102;17.208;2022-11-25T14:47:13;39.93;;;20.63;;
40695;SDS011;40425;51.102;17.208;2022-11-25T14:52:18;35.00;;;18.70;;
40695;SDS011;40425;51.102;17.208;2022-11-25T14:57:26;38.47;;;20.50;;
40695;SDS011;40425;51.102;17.208;2022-11-25T15:02:33;41.95;;;21.42;;
40695;SDS011;40425;51.102;17.208;2022-11-25T15:07:38;43.70;;;23.92;;
40695;SDS011;40425;51.102;17.208;2022-11-25T15:12:40;45.00;;;25.95;;
40695;SDS011;40425;51.102;17.208;2022-11-25T15:17:42;44.25;;;23.27;;
40695;SDS011;40425;51.102;17.208;2022-11-25T15:22:46;46.00;;;24.08;;
40695;SDS011;40425;51.102;17.208;2022-11-25T15:27:49;46.95;;;25.02;;
40695;SDS011;40425;51.102;17.208;2022-11-25T15:32:52;43.38;;;23.05;;
40695;SDS011;40425;51.102;17.208;2022-11-25T15:37:54;43.20;;;23.77;;
40695;SDS011;40425;51.102;17.208;2022-11-25T15:42:57;40.97;;;21.60;;
40695;SDS011;40425;51.102;17.208;2022-11-25T15:48:01;39.10;;;21.65;;
40695;SDS011;40425;51.102;17.208;2022-11-25T15:53:03;40.20;;;21.58;;
40695;SDS011;40425;51.102;17.208;2022-11-25T15:58:09;47.75;;;25.77;;
40695;SDS011;40425;51.102;17.208;2022-11-25T16:03:21;49.50;;;26.47;;
40695;SDS011;40425;51.102;17.208;2022-11-25T16:08:30;78.20;;;37.05;;
40695;SDS011;40425;51.102;17.208;2022-11-25T16:13:37;72.80;;;38.27;;
40695;SDS011;40425;51.102;17.208;2022-11-25T16:24:10;61.07;;;32.57;;
40695;SDS011;40425;51.102;17.208;2022-11-25T16:29:15;62.13;;;32.57;;
40695;SDS011;40425;51.102;17.208;2022-11-25T16:34:18;48.27;;;27.43;;
40695;SDS011;40425;51.102;17.208;2022-11-25T16:39:20;60.10;;;34.80;;
40695;SDS011;40425;51.102;17.208;2022-11-25T16:44:22;37.10;;;21.33;;
40695;SDS011;40425;51.102;17.208;2022-11-25T16:49:24;53.43;;;28.47;;
40695;SDS011;40425;51.102;17.208;2022-11-25T16:54:25;67.57;;;38.03;;
40695;SDS011;40425;51.102;17.208;2022-11-25T16:59:30;70.00;;;38.40;;
40695;SDS011;40425;51.102;17.208;2022-11-25T17:04:34;52.23;;;27.90;;
40695;SDS011;40425;51.102;17.208;2022-11-25T17:09:35;42.50;;;23.60;;
40695;SDS011;40425;51.102;17.208;2022-11-25T17:14:36;41.03;;;23.60;;
40695;SDS011;40425;51.102;17.208;2022-11-25T17:19:40;44.73;;;23.80;;
40695;SDS011;40425;51.102;17.208;2022-11-25T17:24:42;41.00;;;22.70;;
40695;SDS011;40425;51.102;17.208;2022-11-25T17:34:44;50.07;;;30.87;;
40695;SDS011;40425;51.102;17.208;2022-11-25T17:39:45;53.30;;;29.43;;
40695;SDS011;40425;51.102;17.208;2022-11-25T17:44:46;62.20;;;35.50;;
40695;SDS011;40425;51.102;17.208;2022-11-25T17:49:48;73.17;;;42.03;;
40695;SDS011;40425;51.102;17.208;2022-11-25T17:54:51;58.67;;;35.13;;
40695;SDS011;40425;51.102;17.208;2022-11-25T17:59:53;77.77;;;42.83;;
40695;SDS011;40425;51.102;17.208;2022-11-25T18:04:55;58.50;;;34.70;;
40695;SDS011;40425;51.102;17.208;2022-11-25T18:09:58;64.17;;;35.23;;
40695;SDS011;40425;51.102;17.208;2022-11-25T18:14:59;70.37;;;37.47;;
40695;SDS011;40425;51.102;17.208;2022-11-25T18:20:16;72.67;;;41.93;;
40695;SDS011;40425;51.102;17.208;2022-11-25T18:25:23;91.93;;;51.07;;
40695;SDS011;40425;51.102;17.208;2022-11-25T18:30:29;77.03;;;44.60;;
40695;SDS011;40425;51.102;17.208;2022-11-25T18:35:32;84.37;;;45.60;;
40695;SDS011;40425;51.102;17.208;2022-11-25T18:40:34;65.60;;;35.33;;
40695;SDS011;40425;51.102;17.208;2022-11-25T18:45:39;59.50;;;32.27;;
40695;SDS011;40425;51.102;17.208;2022-11-25T18:50:41;59.50;;;33.20;;
40695;SDS011;40425;51.102;17.208;2022-11-25T18:55:43;85.83;;;45.80;;
40695;SDS011;40425;51.102;17.208;2022-11-25T19:00:46;98.03;;;54.50;;
40695;SDS011;40425;51.102;17.208;2022-11-25T19:05:51;97.33;;;54.17;;
40695;SDS011;40425;51.102;17.208;2022-11-25T19:10:58;102.13;;;56.80;;
40695;SDS011;40425;51.102;17.208;2022-11-25T19:16:11;106.47;;;57.57;;
40695;SDS011;40425;51.102;17.208;2022-11-25T19:21:16;100.07;;;55.70;;
40695;SDS011;40425;51.102;17.208;2022-11-25T19:26:22;116.30;;;64.27;;
40695;SDS011;40425;51.102;17.208;2022-11-25T19:31:33;119.27;;;67.63;;
40695;SDS011;40425;51.102;17.208;2022-11-25T19:36:35;92.60;;;51.27;;
40695;SDS011;40425;51.102;17.208;2022-11-25T19:41:41;100.20;;;53.53;;
40695;SDS011;40425;51.102;17.208;2022-11-25T19:46:43;121.57;;;65.47;;
40695;SDS011;40425;51.102;17.208;2022-11-25T19:51:47;114.33;;;62.83;;
40695;SDS011;40425;51.102;17.208;2022-11-25T19:56:49;126.43;;;45.70;;
40695;SDS011;40425;51.102;17.208;2022-11-25T20:01:50;95.70;;;36.33;;
40695;SDS011;40425;51.102;17.208;2022-11-25T20:06:53;127.33;;;40.57;;
40695;SDS011;40425;51.102;17.208;2022-11-25T20:11:55;89.37;;;44.90;;
40695;SDS011;40425;51.102;17.208;2022-11-25T20:17:03;96.87;;;37.97;;
40695;SDS011;40425;51.102;17.208;2022-11-25T20:22:14;203.77;;;40.07;;
40695;SDS011;40425;51.102;17.208;2022-11-25T20:27:17;227.83;;;33.77;;
40695;SDS011;40425;51.102;17.208;2022-11-25T20:32:25;164.33;;;32.40;;
40695;SDS011;40425;51.102;17.208;2022-11-25T20:37:28;155.37;;;34.80;;
40695;SDS011;40425;51.102;17.208;2022-11-25T20:42:40;128.30;;;39.50;;
40695;SDS011;40425;51.102;17.208;2022-11-25T20:47:44;227.00;;;47.70;;
40695;SDS011;40425;51.102;17.208;2022-11-25T20:52:48;146.73;;;44.57;;
40695;SDS011;40425;51.102;17.208;2022-11-25T20:57:50;193.30;;;48.83;;
40695;SDS011;40425;51.102;17.208;2022-11-25T21:02:52;305.37;;;69.13;;
40695;SDS011;40425;51.102;17.208;2022-11-25T21:07:58;180.70;;;57.07;;
40695;SDS011;40425;51.102;17.208;2022-11-25T21:13:00;198.20;;;47.77;;
40695;SDS011;40425;51.102;17.208;2022-11-25T21:18:09;119.83;;;36.33;;
40695;SDS011;40425;51.102;17.208;2022-11-25T21:23:11;153.10;;;35.07;;
40695;SDS011;40425;51.102;17.208;2022-11-25T21:28:22;131.97;;;35.40;;
40695;SDS011;40425;51.102;17.208;2022-11-25T21:33:26;114.73;;;36.60;;
40695;SDS011;40425;51.102;17.208;2022-11-25T21:38:27;136.10;;;42.60;;
40695;SDS011;40425;51.102;17.208;2022-11-25T21:43:29;145.47;;;43.90;;
40695;SDS011;40425;51.102;17.208;2022-11-25T21:48:33;110.37;;;42.53;;
40695;SDS011;40425;51.102;17.208;2022-11-25T21:53:36;72.07;;;33.83;;
40695;SDS011;40425;51.102;17.208;2022-11-25T21:58:37;96.97;;;39.10;;
40695;SDS011;40425;51.102;17.208;2022-11-25T22:03:39;83.17;;;31.77;;
40695;SDS011;40425;51.102;17.208;2022-11-25T22:08:40;73.57;;;27.47;;
40695;SDS011;40425;51.102;17.208;2022-11-25T22:13:41;103.53;;;36.67;;
40695;SDS011;40425;51.102;17.208;2022-11-25T22:18:43;72.07;;;36.67;;
40695;SDS011;40425;51.102;17.208;2022-11-25T22:23:44;62.20;;;35.50;;
40695;SDS011;40425;51.102;17.208;2022-11-25T22:28:46;71.27;;;37.53;;
40695;SDS011;40425;51.102;17.208;2022-11-25T22:33:50;73.73;;;40.20;;
40695;SDS011;40425;51.102;17.208;2022-11-25T22:38:51;78.97;;;41.10;;
40695;SDS011;40425;51.102;17.208;2022-11-25T22:43:52;102.43;;;53.80;;
40695;SDS011;40425;51.102;17.208;2022-11-25T22:54:01;123.43;;;53.73;;
40695;SDS011;40425;51.102;17.208;2022-11-25T22:59:02;127.27;;;58.20;;
40695;SDS011;40425;51.102;17.208;2022-11-25T23:04:03;135.00;;;62.67;;
40695;SDS011;40425;51.102;17.208;2022-11-25T23:09:05;108.77;;;53.27;;
40695;SDS011;40425;51.102;17.208;2022-11-25T23:14:13;113.67;;;54.07;;
40695;SDS011;40425;51.102;17.208;2022-11-25T23:19:14;122.17;;;58.20;;
40695;SDS011;40425;51.102;17.208;2022-11-25T23:24:15;119.73;;;59.80;;
40695;SDS011;40425;51.102;17.208;2022-11-25T23:29:16;115.23;;;57.33;;
40695;SDS011;40425;51.102;17.208;2022-11-25T23:34:17;111.13;;;57.37;;
40695;SDS011;40425;51.102;17.208;2022-11-25T23:39:19;109.27;;;56.37;;
40695;SDS011;40425;51.102;17.208;2022-11-25T23:44:30;107.87;;;53.33;;
40695;SDS011;40425;51.102;17.208;2022-11-25T23:49:35;109.33;;;53.67;;
40695;SDS011;40425;51.102;17.208;2022-11-25T23:54:42;100.27;;;48.10;;
40695;SDS011;40425;51.102;17.208;2022-11-25T23:59:46;86.87;;;45.27;;
